Time;durP1;ratioP1;P1;durP2;ratioP2;P2;SDS_P1;SDS_P2;PMS_P1;PMS_P2;Temp;Humidity;BMP_temperature;BMP_pressure;BME280_temperature;BME280_humidity;BME280_pressure;Samples;Min_cycle;Max_cycle;Signal;HPM_P1;HPM_P2
2021/07/19 00:02:13;;;;;;;12.10;5.00;;;;;;;17.30;100.00;101380.16;4977176;28;20234;-77
2021/07/19 00:04:43;;;;;;;9.18;4.45;;;;;;;17.27;100.00;101375.25;4942874;28;20217;-78
2021/07/19 00:07:11;;;;;;;14.07;5.35;;;;;;;17.19;100.00;101381.44;4971382;28;20233;-78
2021/07/19 00:09:44;;;;;;;9.88;4.88;;;;;;;17.18;100.00;101377.88;4956262;28;20221;-77
2021/07/19 00:12:13;;;;;;;8.18;4.75;;;;;;;17.13;100.00;101396.34;4974710;28;20217;-76
2021/07/19 00:14:41;;;;;;;9.40;4.90;;;;;;;16.97;100.00;101381.19;4957618;28;20653;-76
2021/07/19 00:17:07;;;;;;;8.05;4.57;;;;;;;16.77;100.00;101383.41;4941253;28;20233;-76
2021/07/19 00:19:33;;;;;;;10.40;4.70;;;;;;;16.69;100.00;101378.56;4973024;28;20718;-77
2021/07/19 00:22:00;;;;;;;10.02;4.68;;;;;;;16.78;100.00;101383.09;4967604;28;20303;-77
2021/07/19 00:24:26;;;;;;;10.40;4.80;;;;;;;16.43;100.00;101384.69;4976803;28;20659;-76
2021/07/19 00:26:54;;;;;;;9.57;4.70;;;;;;;16.38;100.00;101388.28;4956972;28;20226;-77
2021/07/19 00:29:20;;;;;;;8.90;4.65;;;;;;;16.71;100.00;101388.13;4973689;28;20185;-76
2021/07/19 00:31:48;;;;;;;12.38;5.07;;;;;;;16.48;100.00;101376.38;4976390;28;20603;-77
2021/07/19 00:34:17;;;;;;;11.13;4.57;;;;;;;16.56;100.00;101373.00;4976726;28;20178;-76
2021/07/19 00:36:43;;;;;;;11.02;4.90;;;;;;;16.42;100.00;101383.03;4969097;28;20649;-77
2021/07/19 00:39:11;;;;;;;8.93;4.80;;;;;;;16.23;100.00;101385.72;4953812;28;20183;-77
2021/07/19 00:41:40;;;;;;;9.65;4.82;;;;;;;16.20;100.00;101380.00;4951919;28;20217;-78
2021/07/19 00:44:06;;;;;;;11.48;4.60;;;;;;;16.27;100.00;101370.31;4985552;28;20197;-77
2021/07/19 00:46:32;;;;;;;10.55;5.10;;;;;;;16.21;100.00;101384.41;4991908;28;20210;-77
2021/07/19 00:49:00;;;;;;;8.73;4.15;;;;;;;16.46;100.00;101376.66;4945012;28;20255;-76
2021/07/19 00:51:28;;;;;;;12.05;4.93;;;;;;;16.75;100.00;101383.69;4958987;28;20715;-77
2021/07/19 00:54:02;;;;;;;10.20;5.13;;;;;;;16.78;100.00;101382.31;4958883;28;20274;-76
2021/07/19 00:56:30;;;;;;;9.40;4.35;;;;;;;16.80;100.00;101385.56;4975533;28;20225;-77
2021/07/19 00:58:56;;;;;;;9.30;4.78;;;;;;;16.80;100.00;101386.38;4945097;28;20694;-77
2021/07/19 01:01:22;;;;;;;7.22;4.28;;;;;;;16.72;100.00;101384.28;4959890;28;20225;-77
2021/07/19 01:03:52;;;;;;;8.15;4.30;;;;;;;16.89;100.00;101379.13;4942916;28;20209;-77
2021/07/19 01:06:19;;;;;;;9.15;4.72;;;;;;;16.97;100.00;101383.94;4957651;28;20218;-77
2021/07/19 01:08:48;;;;;;;8.90;4.28;;;;;;;17.00;100.00;101377.84;4973927;28;20214;-78
2021/07/19 01:11:14;;;;;;;9.18;4.47;;;;;;;16.68;100.00;101386.00;4941193;28;20244;-77
2021/07/19 01:13:43;;;;;;;9.30;4.32;;;;;;;16.67;100.00;101378.88;4974894;28;20228;-77
2021/07/19 01:16:08;;;;;;;9.00;3.97;;;;;;;16.50;100.00;101377.72;4991632;28;20730;-76
2021/07/19 01:18:41;;;;;;;10.23;4.07;;;;;;;16.61;100.00;101381.94;4993337;28;20206;-76
2021/07/19 01:21:32;;;;;;;8.68;3.63;;;;;;;16.51;100.00;101376.59;4963283;28;20233;-76
2021/07/19 01:24:38;;;;;;;6.97;3.58;;;;;;;16.70;100.00;101383.78;4976945;28;20209;-76
2021/07/19 01:27:34;;;;;;;8.70;4.20;;;;;;;16.60;100.00;101397.59;4965714;28;20217;-77
2021/07/19 01:30:04;;;;;;;8.82;4.10;;;;;;;16.26;100.00;101385.16;4981030;28;20190;-76
2021/07/19 01:32:31;;;;;;;9.45;3.90;;;;;;;16.35;100.00;101399.03;4990933;28;20242;-76
2021/07/19 01:34:56;;;;;;;10.65;4.28;;;;;;;16.13;100.00;101395.94;4961975;28;20197;-76
2021/07/19 01:37:27;;;;;;;9.27;4.22;;;;;;;16.27;100.00;101395.00;4966058;28;20206;-76
2021/07/19 01:40:13;;;;;;;9.00;4.28;;;;;;;16.26;100.00;101387.06;4986311;28;20281;-76
2021/07/19 01:42:39;;;;;;;9.38;4.20;;;;;;;15.95;100.00;101387.63;4983547;28;20208;-78
2021/07/19 01:45:11;;;;;;;8.10;4.00;;;;;;;16.14;100.00;101392.09;4968077;28;20186;-78
2021/07/19 01:47:39;;;;;;;7.40;3.70;;;;;;;16.12;100.00;101386.09;4965619;28;20229;-77
2021/07/19 01:50:10;;;;;;;10.10;4.18;;;;;;;16.05;100.00;101393.84;4965765;28;20579;-77
2021/07/19 01:52:59;;;;;;;8.05;3.78;;;;;;;16.10;100.00;101392.97;4979341;28;20684;-77
2021/07/19 01:55:28;;;;;;;6.97;3.75;;;;;;;16.14;100.00;101391.31;4969024;28;20264;-77
2021/07/19 01:57:55;;;;;;;8.27;3.80;;;;;;;16.32;100.00;101396.88;4967257;28;20201;-77
2021/07/19 02:00:24;;;;;;;8.88;3.47;;;;;;;16.24;100.00;101392.00;4943093;28;20250;-78
2021/07/19 02:03:01;;;;;;;7.22;3.53;;;;;;;16.57;100.00;101398.22;4956402;28;20213;-78
2021/07/19 02:05:30;;;;;;;6.80;3.65;;;;;;;16.65;100.00;101392.06;4951172;28;20220;-79
2021/07/19 02:08:05;;;;;;;11.07;3.90;;;;;;;16.73;100.00;101391.41;4964314;28;20656;-78
2021/07/19 02:10:42;;;;;;;6.13;3.70;;;;;;;16.88;100.00;101393.94;4965640;28;20238;-78
2021/07/19 02:13:12;;;;;;;8.43;3.28;;;;;;;16.96;100.00;101390.56;4952679;28;20266;-78
2021/07/19 02:15:45;;;;;;;7.72;3.20;;;;;;;16.94;100.00;101388.09;4962884;28;20214;-78
2021/07/19 02:18:14;;;;;;;6.68;3.20;;;;;;;16.77;100.00;101391.63;4950258;28;20197;-78
2021/07/19 02:20:43;;;;;;;11.38;3.53;;;;;;;16.76;100.00;101382.59;4964918;28;20229;-78
2021/07/19 02:23:13;;;;;;;8.75;3.38;;;;;;;16.71;100.00;101382.66;4944677;28;20214;-79
2021/07/19 02:25:56;;;;;;;8.65;3.28;;;;;;;16.83;100.00;101384.94;4948780;28;20243;-78
2021/07/19 02:28:23;;;;;;;7.80;3.20;;;;;;;16.81;100.00;101377.03;4954108;28;20186;-78
2021/07/19 02:30:52;;;;;;;7.35;3.38;;;;;;;16.54;100.00;101380.69;4964651;28;20217;-78
2021/07/19 02:33:23;;;;;;;6.60;3.08;;;;;;;16.79;100.00;101383.91;4979320;28;20249;-78
2021/07/19 02:35:53;;;;;;;8.65;3.47;;;;;;;17.03;99.53;101374.50;4947658;28;20225;-78
2021/07/19 02:38:27;;;;;;;7.00;3.20;;;;;;;17.01;99.60;101376.72;4983305;28;20778;-78
2021/07/19 02:41:04;;;;;;;9.10;3.55;;;;;;;16.57;100.00;101370.78;4966258;28;20218;-77
2021/07/19 02:43:32;;;;;;;5.65;3.20;;;;;;;16.84;98.78;101372.88;4958122;28;20926;-78
2021/07/19 02:45:59;;;;;;;7.97;3.35;;;;;;;17.04;95.98;101373.41;4981314;28;20221;-77
2021/07/19 02:48:31;;;;;;;9.50;3.38;;;;;;;17.06;95.35;101371.19;4981260;28;20268;-78
2021/07/19 02:50:58;;;;;;;7.70;3.78;;;;;;;16.98;94.76;101358.94;4981484;28;20720;-78
2021/07/19 02:53:29;;;;;;;7.78;2.72;;;;;;;16.69;96.61;101362.91;4961479;28;20206;-77
2021/07/19 02:55:57;;;;;;;6.97;2.90;;;;;;;16.77;94.87;101364.19;4974920;28;20256;-77
2021/07/19 02:58:25;;;;;;;7.05;2.95;;;;;;;16.75;95.03;101372.72;4976558;28;20186;-77
2021/07/19 03:00:52;;;;;;;8.73;3.22;;;;;;;16.82;94.00;101375.91;4960495;28;20271;-77
2021/07/19 03:03:25;;;;;;;7.60;3.00;;;;;;;16.68;94.33;101371.44;4961685;28;20212;-77
2021/07/19 03:05:59;;;;;;;7.50;2.88;;;;;;;16.64;94.52;101381.38;4975583;28;20261;-77
2021/07/19 03:08:29;;;;;;;6.18;2.83;;;;;;;16.88;94.45;101384.91;4960102;28;20183;-77
2021/07/19 03:11:10;;;;;;;8.50;2.70;;;;;;;16.97;91.94;101371.00;4974761;28;20222;-77
2021/07/19 03:13:46;;;;;;;8.10;2.75;;;;;;;16.62;94.98;101376.19;4974460;28;20217;-77
2021/07/19 03:16:15;;;;;;;6.18;2.67;;;;;;;16.51;94.22;101376.59;4971928;28;20229;-78
2021/07/19 03:18:41;;;;;;;6.07;2.67;;;;;;;17.12;91.25;101372.72;4952439;28;20212;-77
2021/07/19 03:21:09;;;;;;;8.77;2.45;;;;;;;17.23;90.09;101369.56;4959968;28;20225;-77
2021/07/19 03:23:38;;;;;;;6.53;2.40;;;;;;;17.19;90.51;101373.19;4962510;28;20720;-77
2021/07/19 03:26:07;;;;;;;6.82;2.53;;;;;;;17.30;89.97;101374.69;4957784;28;20265;-77
2021/07/19 03:28:36;;;;;;;5.25;2.70;;;;;;;17.24;88.32;101373.13;4949389;28;20236;-77
2021/07/19 03:31:04;;;;;;;6.72;2.60;;;;;;;16.90;89.41;101383.47;4960758;28;20264;-78
2021/07/19 03:33:30;;;;;;;9.82;2.75;;;;;;;16.98;89.77;101385.56;4977944;28;20211;-77
2021/07/19 03:35:56;;;;;;;6.75;2.53;;;;;;;17.17;89.26;101380.94;4977621;28;20232;-77
2021/07/19 03:38:28;;;;;;;7.30;2.58;;;;;;;17.19;87.07;101373.19;4961934;28;20196;-78
2021/07/19 03:41:18;;;;;;;5.18;2.45;;;;;;;17.32;87.81;101377.94;4960992;28;20256;-77
2021/07/19 03:43:48;;;;;;;4.53;2.53;;;;;;;17.33;87.75;101378.47;4966264;28;20706;-78
2021/07/19 03:46:23;;;;;;;7.80;2.65;;;;;;;17.32;88.17;101383.44;4963744;28;20675;-77
2021/07/19 03:48:49;;;;;;;6.45;2.40;;;;;;;17.33;87.74;101377.66;4972084;28;20190;-78
2021/07/19 03:51:14;;;;;;;5.93;2.42;;;;;;;17.38;88.00;101372.88;4975883;28;20244;-77
2021/07/19 03:53:44;;;;;;;7.65;3.03;;;;;;;17.49;87.58;101371.63;4974752;28;20232;-77
2021/07/19 03:56:09;;;;;;;8.23;2.70;;;;;;;17.51;86.66;101377.63;4959860;28;20671;-78
2021/07/19 03:58:39;;;;;;;7.95;3.28;;;;;;;17.70;87.05;101386.63;4951603;28;20190;-77
2021/07/19 04:01:07;;;;;;;6.32;2.95;;;;;;;17.54;87.97;101389.94;4951874;28;20579;-77
2021/07/19 04:03:45;;;;;;;6.57;2.90;;;;;;;17.44;89.77;101388.16;4977010;28;20205;-74
2021/07/19 04:06:16;;;;;;;8.50;3.10;;;;;;;17.42;90.91;101389.59;4961059;28;20213;-75
2021/07/19 04:08:52;;;;;;;8.73;3.20;;;;;;;17.15;93.16;101378.44;4941478;28;20668;-76
2021/07/19 04:11:21;;;;;;;9.23;3.25;;;;;;;16.93;95.86;101386.44;4982079;28;20226;-76
2021/07/19 04:13:52;;;;;;;5.63;3.00;;;;;;;17.10;96.66;101385.94;4980990;28;20793;-75
2021/07/19 04:16:21;;;;;;;6.10;3.08;;;;;;;16.99;96.66;101381.69;4951470;28;20229;-76
2021/07/19 04:18:51;;;;;;;8.40;3.25;;;;;;;17.35;95.84;101389.16;4973228;28;20190;-76
2021/07/19 04:21:18;;;;;;;18.08;14.40;;;;;;;17.33;96.06;101382.34;4948646;28;20229;-76
2021/07/19 04:23:46;;;;;;;10.00;5.22;;;;;;;17.27;97.27;101380.75;4975389;28;20228;-77
2021/07/19 04:26:22;;;;;;;8.43;3.42;;;;;;;17.08;98.22;101377.19;4958012;28;20214;-77
2021/07/19 04:28:54;;;;;;;8.02;3.40;;;;;;;17.18;99.02;101377.88;4972863;28;20205;-74
2021/07/19 04:31:27;;;;;;;8.50;3.03;;;;;;;17.38;97.72;101381.13;4970303;28;20252;-76
2021/07/19 04:33:57;;;;;;;6.57;3.58;;;;;;;17.00;99.69;101386.09;4961460;28;20856;-77
2021/07/19 04:36:32;;;;;;;10.45;3.40;;;;;;;17.26;100.00;101390.13;4972493;28;20222;-77
2021/07/19 04:38:58;;;;;;;5.85;3.35;;;;;;;17.25;99.30;101386.56;4939804;28;20186;-77
2021/07/19 04:41:28;;;;;;;9.23;3.67;;;;;;;17.19;99.95;101384.19;4961013;28;20222;-76
2021/07/19 04:43:54;;;;;;;7.95;3.20;;;;;;;17.14;100.00;101387.81;4983761;28;20620;-76
2021/07/19 04:46:23;;;;;;;11.95;3.95;;;;;;;17.11;100.00;101391.13;4974234;28;20212;-76
2021/07/19 04:48:53;;;;;;;6.35;3.20;;;;;;;17.11;100.00;101387.59;4990566;28;20197;-77
2021/07/19 04:51:19;;;;;;;9.32;3.20;;;;;;;17.31;100.00;101392.78;4956046;28;20222;-77
2021/07/19 04:53:45;;;;;;;12.15;6.85;;;;;;;17.30;100.00;101380.16;4956639;28;20730;-76
2021/07/19 04:56:10;;;;;;;19.10;15.13;;;;;;;17.33;100.00;101385.09;4942794;28;20920;-76
2021/07/19 04:58:39;;;;;;;8.52;3.50;;;;;;;17.42;100.00;101390.41;4958102;28;20197;-76
2021/07/19 05:01:07;;;;;;;6.10;3.20;;;;;;;17.33;100.00;101401.56;4960475;28;20215;-76
2021/07/19 05:03:35;;;;;;;6.95;3.50;;;;;;;17.60;100.00;101396.97;4970136;28;20222;-75
2021/07/19 05:06:03;;;;;;;10.32;3.45;;;;;;;17.56;100.00;101399.50;4979904;28;20710;-73
2021/07/19 05:08:29;;;;;;;7.78;3.50;;;;;;;17.84;99.13;101404.81;4964838;28;20722;-75
2021/07/19 05:10:58;;;;;;;10.20;3.80;;;;;;;17.54;100.00;101401.72;4956405;28;20233;-75
2021/07/19 05:13:23;;;;;;;8.13;3.75;;;;;;;17.71;100.00;101402.03;4943870;28;20210;-75
2021/07/19 05:15:49;;;;;;;8.32;3.65;;;;;;;17.37;100.00;101409.69;4930577;28;20214;-74
2021/07/19 05:18:19;;;;;;;9.40;4.03;;;;;;;17.61;100.00;101399.41;4963238;28;20197;-73
2021/07/19 05:20:45;;;;;;;10.18;3.60;;;;;;;17.72;100.00;101401.69;4952109;28;20230;-74
2021/07/19 05:23:16;;;;;;;12.98;4.05;;;;;;;17.88;100.00;101407.75;4947023;28;20272;-77
2021/07/19 05:25:50;;;;;;;10.40;3.80;;;;;;;18.03;99.84;101396.50;4963389;28;20646;-75
2021/07/19 05:28:15;;;;;;;25.15;20.73;;;;;;;17.62;100.00;101400.22;4980435;28;20229;-74
2021/07/19 05:30:50;;;;;;;13.07;8.15;;;;;;;17.62;100.00;101409.31;4979887;28;20230;-74
2021/07/19 05:33:17;;;;;;;9.90;3.67;;;;;;;17.32;100.00;101400.72;4977463;28;20225;-75
2021/07/19 05:35:47;;;;;;;10.63;3.42;;;;;;;17.96;100.00;101396.06;4940537;28;20252;-78
2021/07/19 05:38:18;;;;;;;9.43;3.50;;;;;;;17.95;100.00;101399.94;4992606;28;20681;-80
2021/07/19 05:40:44;;;;;;;8.55;3.28;;;;;;;18.00;97.64;101391.59;4964836;28;20222;-77
2021/07/19 05:43:09;;;;;;;6.55;3.15;;;;;;;18.25;97.76;101398.28;4981874;28;20276;-77
2021/07/19 05:45:37;;;;;;;10.70;3.50;;;;;;;18.03;97.67;101397.28;4946391;28;20226;-76
2021/07/19 05:48:08;;;;;;;7.28;3.45;;;;;;;17.74;99.44;101387.66;4976235;28;20218;-78
2021/07/19 05:50:37;;;;;;;8.68;3.70;;;;;;;17.78;100.00;101399.69;4963522;28;20222;-81
2021/07/19 05:53:02;;;;;;;9.07;3.58;;;;;;;18.01;99.58;101393.22;4995149;28;20289;-78
2021/07/19 05:55:29;;;;;;;5.20;3.03;;;;;;;18.16;97.04;101405.59;4982985;28;20640;-79
2021/07/19 05:58:04;;;;;;;7.05;3.20;;;;;;;18.09;97.98;101411.81;4968289;28;20360;-79
2021/07/19 06:00:29;;;;;;;8.18;3.47;;;;;;;18.57;94.35;101409.19;4980806;28;20222;-79
2021/07/19 06:02:56;;;;;;;9.52;3.47;;;;;;;18.60;95.09;101414.09;4996227;28;20284;-78
2021/07/19 06:05:21;;;;;;;7.63;3.10;;;;;;;18.07;96.60;101405.75;4984748;28;20651;-79
2021/07/19 06:07:47;;;;;;;7.03;2.95;;;;;;;18.39;94.53;101407.38;4964155;28;20241;-77
2021/07/19 06:10:13;;;;;;;6.85;3.38;;;;;;;18.17;96.62;101412.75;4980713;28;20591;-76
2021/07/19 06:12:39;;;;;;;8.48;3.00;;;;;;;18.32;94.84;101417.16;4964350;28;20214;-78
2021/07/19 06:15:08;;;;;;;6.65;2.88;;;;;;;18.47;95.12;101425.09;4970690;28;20209;-77
2021/07/19 06:17:36;;;;;;;6.97;3.35;;;;;;;18.64;91.75;101424.19;4969377;28;20210;-80
2021/07/19 06:20:17;;;;;;;5.68;2.75;;;;;;;18.73;90.72;101416.81;4968556;28;20194;-79
2021/07/19 06:22:46;;;;;;;8.40;3.20;;;;;;;18.76;90.65;101418.16;4976540;28;20209;-77
2021/07/19 06:25:15;;;;;;;8.45;3.20;;;;;;;19.07;89.11;101431.81;4973981;28;20182;-77
2021/07/19 06:27:41;;;;;;;7.40;3.10;;;;;;;18.94;87.19;101421.59;4970779;28;20667;-78
2021/07/19 06:30:10;;;;;;;4.75;2.70;;;;;;;18.53;90.25;101424.69;4969181;28;20194;-79
2021/07/19 06:32:38;;;;;;;7.82;3.03;;;;;;;18.94;86.19;101426.31;4973442;28;20220;-76
2021/07/19 06:35:09;;;;;;;6.63;2.90;;;;;;;19.05;88.54;101430.50;4997012;28;20185;-77
2021/07/19 06:37:35;;;;;;;9.00;2.92;;;;;;;18.59;89.56;101426.22;4988351;28;20221;-78
2021/07/19 06:40:01;;;;;;;8.55;3.47;;;;;;;18.79;88.64;101423.88;4959993;28;20198;-78
2021/07/19 06:42:26;;;;;;;6.03;2.72;;;;;;;19.09;88.24;101435.06;4966875;28;20594;-77
2021/07/19 06:44:58;;;;;;;4.90;2.60;;;;;;;19.23;87.07;101435.88;4966498;28;20189;-77
2021/07/19 06:47:25;;;;;;;7.13;3.20;;;;;;;19.13;87.26;101433.31;4976069;28;20206;-78
2021/07/19 06:49:54;;;;;;;4.93;2.83;;;;;;;18.77;85.05;101430.78;4958868;28;20186;-78
2021/07/19 06:52:22;;;;;;;6.18;3.30;;;;;;;19.05;84.62;101436.00;4976964;28;20237;-80
2021/07/19 06:54:49;;;;;;;4.47;3.00;;;;;;;18.67;88.51;101431.81;4995718;28;20698;-78
2021/07/19 06:57:18;;;;;;;6.72;3.20;;;;;;;18.82;87.72;101433.44;4961622;28;20229;-79
2021/07/19 06:59:46;;;;;;;6.13;3.13;;;;;;;18.87;86.08;101428.66;4959680;28;20194;-80
2021/07/19 07:02:11;;;;;;;5.88;3.00;;;;;;;18.81;87.07;101448.31;4958091;28;20256;-79
2021/07/19 07:04:41;;;;;;;5.18;2.83;;;;;;;18.83;87.32;101440.56;4955591;28;20191;-80
2021/07/19 07:07:07;;;;;;;8.15;3.22;;;;;;;18.97;86.88;101448.56;4955635;28;20713;-78
2021/07/19 07:09:32;;;;;;;5.15;2.80;;;;;;;18.92;88.17;101432.09;4990943;28;20189;-78
2021/07/19 07:11:58;;;;;;;5.75;2.88;;;;;;;19.02;86.70;101445.69;4970984;28;20228;-77
2021/07/19 07:14:26;;;;;;;5.85;2.88;;;;;;;19.24;87.97;101443.00;4970203;28;20796;-78
2021/07/19 07:16:51;;;;;;;8.20;3.05;;;;;;;19.52;84.51;101444.53;4975043;28;20226;-80
2021/07/19 07:19:19;;;;;;;6.97;2.97;;;;;;;19.37;84.06;101436.63;4974382;28;20190;-77
2021/07/19 07:21:45;;;;;;;7.40;2.92;;;;;;;19.74;81.28;101443.44;4975193;28;20214;-79
2021/07/19 07:24:14;;;;;;;5.22;2.97;;;;;;;19.49;83.46;101445.19;4989403;28;20186;-77
2021/07/19 07:26:42;;;;;;;7.25;3.13;;;;;;;19.12;82.98;101442.72;4962353;28;20225;-77
2021/07/19 07:29:12;;;;;;;7.70;3.20;;;;;;;19.40;85.10;101436.81;4977422;28;20189;-77
2021/07/19 07:31:38;;;;;;;6.05;3.03;;;;;;;19.61;83.78;101442.66;4961180;28;20289;-76
2021/07/19 07:34:07;;;;;;;7.85;2.80;;;;;;;19.69;82.97;101438.03;4986126;28;20292;-77
2021/07/19 07:36:37;;;;;;;6.55;3.17;;;;;;;19.81;80.42;101437.47;4997345;28;20292;-78
2021/07/19 07:39:03;;;;;;;5.45;3.25;;;;;;;19.59;82.67;101440.22;4976017;28;20186;-79
2021/07/19 07:41:34;;;;;;;5.78;3.20;;;;;;;19.45;80.28;101446.91;4957629;28;20308;-79
2021/07/19 07:43:59;;;;;;;8.23;3.90;;;;;;;19.55;81.25;101443.91;4970625;28;20205;-77
2021/07/19 07:46:28;;;;;;;6.32;3.33;;;;;;;19.84;78.39;101447.91;4995423;28;20264;-78
2021/07/19 07:48:56;;;;;;;6.75;3.42;;;;;;;19.64;77.33;101444.81;4991191;28;20198;-79
2021/07/19 07:51:24;;;;;;;5.40;3.05;;;;;;;19.44;79.59;101439.78;4960055;28;20218;-78
2021/07/19 07:53:56;;;;;;;6.80;3.25;;;;;;;19.40;77.43;101445.09;4965192;28;20768;-78
2021/07/19 07:56:25;;;;;;;6.60;3.95;;;;;;;19.51;77.90;101442.91;4964434;28;20301;-78
2021/07/19 07:58:50;;;;;;;4.40;3.30;;;;;;;19.66;77.19;101442.56;4972492;28;20582;-76
2021/07/19 08:01:16;;;;;;;8.73;3.75;;;;;;;19.97;75.99;101441.50;4944274;28;20226;-77
2021/07/19 08:03:44;;;;;;;7.60;3.50;;;;;;;19.64;77.32;101442.06;4979712;28;20205;-77
2021/07/19 08:06:12;;;;;;;6.53;3.85;;;;;;;19.43;76.89;101447.22;4960532;28;20233;-76
2021/07/19 08:08:40;;;;;;;5.88;3.72;;;;;;;19.67;75.81;101429.25;4989032;28;20197;-76
2021/07/19 08:11:08;;;;;;;5.75;3.50;;;;;;;19.74;76.77;101426.91;4956408;28;20218;-77
2021/07/19 08:13:34;;;;;;;6.90;3.58;;;;;;;19.78;73.68;101432.59;4966646;28;20218;-78
2021/07/19 08:16:00;;;;;;;8.00;4.78;;;;;;;19.79;76.58;101434.22;4975809;28;20265;-77
2021/07/19 08:18:25;;;;;;;6.78;4.13;;;;;;;20.13;74.26;101430.56;4959662;28;20235;-76
2021/07/19 08:20:53;;;;;;;6.60;3.72;;;;;;;20.30;72.30;101418.81;4975097;28;20599;-77
2021/07/19 08:23:21;;;;;;;5.50;4.07;;;;;;;20.30;73.84;101427.09;4976987;28;20206;-77
2021/07/19 08:25:49;;;;;;;5.05;3.67;;;;;;;20.50;71.89;101425.41;4956172;28;20276;-79
2021/07/19 08:28:15;;;;;;;6.32;4.20;;;;;;;20.43;71.53;101420.66;4974352;28;20202;-77
2021/07/19 08:30:43;;;;;;;7.45;3.90;;;;;;;20.59;69.11;101428.19;4988678;28;20244;-78
2021/07/19 08:33:08;;;;;;;7.47;3.95;;;;;;;20.43;73.15;101421.47;4976262;28;20703;-78
2021/07/19 08:35:34;;;;;;;5.55;3.60;;;;;;;20.16;71.18;101423.59;4959671;28;20230;-77
2021/07/19 08:38:03;;;;;;;7.93;4.03;;;;;;;20.20;70.62;101419.91;4973031;28;20206;-77
2021/07/19 08:40:32;;;;;;;6.47;4.00;;;;;;;19.94;74.68;101426.38;4969443;28;20233;-76
2021/07/19 08:43:03;;;;;;;8.38;4.00;;;;;;;19.78;76.45;101427.88;4974075;28;20210;-77
2021/07/19 08:45:29;;;;;;;7.82;3.67;;;;;;;19.91;77.46;101426.22;4990393;28;20299;-76
2021/07/19 08:47:55;;;;;;;7.20;4.03;;;;;;;19.98;75.93;101421.91;4975535;28;20710;-77
2021/07/19 08:50:24;;;;;;;7.05;3.90;;;;;;;19.95;76.72;101419.75;4981633;28;20582;-78
2021/07/19 08:52:50;;;;;;;6.43;3.97;;;;;;;20.00;76.23;101419.63;4974199;28;20213;-78
2021/07/19 08:55:19;;;;;;;6.15;4.30;;;;;;;19.76;75.96;101429.31;4965443;28;20192;-77
2021/07/19 08:57:49;;;;;;;9.23;4.53;;;;;;;19.30;79.25;101430.72;4992076;28;20331;-79
2021/07/19 09:00:15;;;;;;;7.72;4.53;;;;;;;19.27;80.87;101431.34;4988615;28;20194;-77
2021/07/19 09:02:44;;;;;;;6.65;4.30;;;;;;;19.41;80.85;101427.44;4957053;28;20209;-77
2021/07/19 09:05:10;;;;;;;7.28;4.40;;;;;;;19.53;80.62;101435.97;4996818;28;20201;-78
2021/07/19 09:07:36;;;;;;;6.90;4.32;;;;;;;19.84;80.10;101421.13;4995236;28;20622;-79
2021/07/19 09:10:02;;;;;;;7.60;4.20;;;;;;;19.93;78.83;101430.28;4973692;28;20210;-78
2021/07/19 09:12:35;;;;;;;8.07;4.78;;;;;;;19.75;79.07;101422.19;4956246;28;20829;-77
2021/07/19 09:15:01;;;;;;;7.03;4.35;;;;;;;19.66;81.00;101428.75;4974107;28;20190;-77
2021/07/19 09:17:27;;;;;;;6.45;4.70;;;;;;;19.42;80.65;101433.75;4991249;28;20272;-78
2021/07/19 09:19:54;;;;;;;8.43;4.10;;;;;;;19.44;81.13;101431.50;4955152;28;20233;-78
2021/07/19 09:22:33;;;;;;;7.88;4.05;;;;;;;19.49;80.40;101423.13;4939718;28;20234;-78
2021/07/19 09:25:10;;;;;;;8.32;4.28;;;;;;;19.78;79.23;101421.56;4960663;28;20236;-77
2021/07/19 09:27:36;;;;;;;7.07;4.18;;;;;;;19.90;80.22;101422.63;4976593;28;20292;-77
2021/07/19 09:30:21;;;;;;;8.05;4.22;;;;;;;19.91;79.77;101416.00;4991182;28;20186;-81
2021/07/19 09:33:18;;;;;;;6.80;4.25;;;;;;;19.85;80.46;101422.78;4957205;28;20210;-78
2021/07/19 09:35:47;;;;;;;8.52;4.57;;;;;;;20.11;78.94;101407.19;4974572;28;20223;-78
2021/07/19 09:38:17;;;;;;;5.50;4.22;;;;;;;19.90;79.56;101413.56;4976347;28;20271;-78
2021/07/19 09:40:46;;;;;;;7.80;4.45;;;;;;;20.14;77.75;101415.63;4956411;28;20229;-76
2021/07/19 09:43:22;;;;;;;4.97;4.25;;;;;;;20.07;75.35;101420.81;4967198;28;20206;-78
2021/07/19 09:46:07;;;;;;;6.53;4.03;;;;;;;19.95;72.18;101405.97;4962365;28;20224;-77
2021/07/19 09:48:36;;;;;;;6.78;4.15;;;;;;;19.67;71.24;101411.91;4964421;28;20198;-77
2021/07/19 09:51:02;;;;;;;8.40;4.50;;;;;;;19.91;72.24;101407.72;4969530;28;20225;-78
2021/07/19 09:53:43;;;;;;;9.30;4.47;;;;;;;19.91;70.57;101404.16;4975460;28;20294;-79
2021/07/19 09:56:12;;;;;;;5.22;4.03;;;;;;;20.24;68.44;101398.00;4968016;28;20308;-77
2021/07/19 09:58:41;;;;;;;5.75;4.50;;;;;;;20.62;69.27;101402.69;4993664;28;20905;-76
2021/07/19 10:01:09;;;;;;;6.72;4.60;;;;;;;20.54;70.97;101393.25;4985204;28;20242;-76
2021/07/19 10:03:37;;;;;;;5.22;4.32;;;;;;;21.09;68.65;101397.16;4959367;28;20194;-77
2021/07/19 10:06:09;;;;;;;4.80;3.80;;;;;;;20.82;67.16;101389.13;4965891;28;20244;-77
2021/07/19 10:08:37;;;;;;;8.05;4.55;;;;;;;20.89;67.34;101395.00;4978870;28;20547;-77
2021/07/19 10:11:02;;;;;;;6.15;4.35;;;;;;;20.64;65.58;101401.28;4966793;28;20225;-77
2021/07/19 10:13:32;;;;;;;5.88;4.22;;;;;;;20.67;66.94;101392.34;4967392;28;20258;-77
2021/07/19 10:15:58;;;;;;;5.50;4.15;;;;;;;21.52;64.59;101387.75;4992546;28;20342;-77
2021/07/19 10:18:29;;;;;;;7.15;4.05;;;;;;;21.59;59.97;101388.88;4975498;28;20252;-78
2021/07/19 10:20:55;;;;;;;5.35;3.40;;;;;;;20.91;61.28;101384.44;4978570;28;20224;-78
2021/07/19 10:23:23;;;;;;;5.47;3.55;;;;;;;20.79;65.07;101383.44;4962550;28;20202;-76
2021/07/19 10:25:52;;;;;;;4.93;3.42;;;;;;;20.90;62.23;101388.34;4975855;28;20785;-75
2021/07/19 10:28:17;;;;;;;4.78;3.53;;;;;;;21.31;62.39;101382.03;4959289;28;20182;-77
2021/07/19 10:30:45;;;;;;;7.50;3.60;;;;;;;21.26;61.75;101378.63;4959695;28;20273;-76
2021/07/19 10:33:11;;;;;;;5.32;3.40;;;;;;;21.17;59.91;101377.00;4978844;28;20585;-76
2021/07/19 10:35:37;;;;;;;4.38;3.38;;;;;;;21.29;61.16;101367.72;4995921;28;20221;-78
2021/07/19 10:38:11;;;;;;;5.25;3.50;;;;;;;21.67;62.26;101368.72;4961420;28;20234;-77
2021/07/19 10:40:38;;;;;;;6.40;3.78;;;;;;;21.61;59.96;101375.56;4958040;28;20241;-76
2021/07/19 10:43:16;;;;;;;5.70;3.83;;;;;;;21.06;61.08;101375.69;4984255;28;20198;-76
2021/07/19 10:45:48;;;;;;;6.15;4.13;;;;;;;20.72;63.58;101372.88;4959447;28;20221;-75
2021/07/19 10:48:26;;;;;;;4.93;3.80;;;;;;;21.00;64.12;101368.69;4958057;28;20820;-76
2021/07/19 10:50:53;;;;;;;4.18;3.42;;;;;;;20.84;62.75;101378.56;4973218;28;20229;-77
2021/07/19 10:53:20;;;;;;;6.60;4.07;;;;;;;21.12;61.83;101375.22;4975869;28;20216;-76
2021/07/19 10:55:57;;;;;;;5.20;3.80;;;;;;;20.98;63.11;101370.97;4976451;28;20225;-76
2021/07/19 10:58:29;;;;;;;5.20;3.70;;;;;;;20.89;63.17;101373.69;4973647;28;20210;-76
2021/07/19 11:00:54;;;;;;;5.55;3.92;;;;;;;20.78;63.60;101376.28;4943604;28;20250;-77
2021/07/19 11:03:20;;;;;;;5.65;3.85;;;;;;;20.94;63.59;101367.22;4944602;28;20643;-77
2021/07/19 11:05:55;;;;;;;4.30;3.88;;;;;;;20.93;64.56;101365.59;4960044;28;20217;-77
2021/07/19 11:08:25;;;;;;;5.78;4.28;;;;;;;20.26;67.00;101365.38;4973651;28;20174;-76
2021/07/19 11:10:52;;;;;;;6.43;4.30;;;;;;;20.43;68.68;101369.81;4957861;28;20229;-77
2021/07/19 11:13:26;;;;;;;6.03;4.15;;;;;;;20.52;66.72;101367.91;4951283;28;20288;-76
2021/07/19 11:15:52;;;;;;;5.95;4.38;;;;;;;20.72;66.00;101367.34;4953621;28;20230;-76
2021/07/19 11:18:30;;;;;;;5.28;4.10;;;;;;;21.44;63.23;101364.50;4984478;28;20475;-76
2021/07/19 11:20:57;;;;;;;5.93;4.30;;;;;;;21.70;61.28;101351.44;4976696;28;20229;-76
2021/07/19 11:23:25;;;;;;;6.25;4.20;;;;;;;21.42;63.66;101354.91;4971427;28;20207;-76
2021/07/19 11:25:52;;;;;;;5.82;4.13;;;;;;;21.74;61.98;101355.19;4938503;28;20225;-76
2021/07/19 11:28:28;;;;;;;5.07;3.80;;;;;;;21.67;60.54;101357.66;4982446;28;20300;-77
2021/07/19 11:31:04;;;;;;;5.85;4.70;;;;;;;21.56;60.85;101350.84;4977818;28;20714;-79
2021/07/19 11:33:40;;;;;;;6.80;4.55;;;;;;;21.82;60.68;101354.34;4962183;28;20210;-76